Terminal Aerodrome Forecast
Issued by NWS

Home | Current Version | Previous Version | Text Only | Print | Product List | Glossary On
Versions: 1 2 3 4 5 6 7 8 9 10 11 12 13 14
278
FTUS42 TJSJ 300520
TAFJBQ
TAF
TJBQ 300520Z 3006/3106 09006KT P6SM VCSH SCT021 SCT027
     FM301300 08013KT P6SM FEW025 SCT035
     FM302300 07008KT P6SM SCT030
      AMD NOT SKED TIL 301100=

USA.gov is the U.S. government's official web portal to all federal, state and local government web resources and services.